Galileo — SX2040 — position and weather

sailwx.info

Track history (hours):
 
Tides and Currents Weather Stations Pressure Air Temp Water Temp Dewpoint Dewpoint Depression Visibility Wind Speed Wind Dir Waves Ship Positions

Galileo

Last reported at 2016-Jul-27 03:33 UTC. Time now 2016-Jul-28 16:30 UTC.
Position N 36°60' E 025°19'.

Length 40 m; draft 3 m.

Type: Passenger vessel. MMSI: 239299000.

Date/timePositionNaut miles runAvg speedWind from/ knotsBaromVisibWave heightAir tempDewpointWater temp
2016-Jul-27 03:33N 36°60' E 025°19'7 7.2
2016-Jul-27 02:34N 37°06' E 025°22'0 0.0
2016-Jul-27 01:33N 37°06' E 025°22'0 0.0
2016-Jul-27 00:33N 37°06' E 025°22'0 0.0
2016-Jul-26 23:33N 37°06' E 025°22'0 0.0
2016-Jul-26 22:33N 37°06' E 025°22'0 0.0
2016-Jul-26 21:33N 37°06' E 025°22'0 0.0
2016-Jul-26 20:33N 37°06' E 025°22'0 0.0
2016-Jul-26 19:33N 37°06' E 025°22'0 0.0
2016-Jul-26 18:33N 37°06' E 025°22'0 0.0
2016-Jul-26 17:33N 37°06' E 025°22'0 0.0
2016-Jul-26 16:33N 37°06' E 025°22'0 0.0
2016-Jul-26 15:33N 37°06' E 025°22'0 0.0
2016-Jul-26 14:33N 37°06' E 025°22'0 0.0
2016-Jul-26 13:34N 37°06' E 025°22'0 0.0
2016-Jul-26 12:33N 37°06' E 025°22'6 5.6
2016-Jul-26 11:33N 37°12' E 025°20'10 8.1
2016-Jul-26 10:17N 37°07' E 025°09'8 0.5
2016-Jul-25 16:33N 37°15' E 025°11'9 8.9
2016-Jul-25 15:33N 37°23' E 025°17'5 5.4
2016-Jul-25 14:33N 37°28' E 025°20'0 0.0
2016-Jul-25 13:31N 37°28' E 025°20'0 0.0
2016-Jul-25 12:30N 37°28' E 025°20'0 0.0
2016-Jul-25 11:22N 37°28' E 025°20'0 0.0
2016-Jul-25 08:24N 37°28' E 025°20'0 0.0
2016-Jul-25 07:33N 37°28' E 025°20'0 0.0
2016-Jul-25 06:30N 37°28' E 025°20'0 0.0
2016-Jul-25 05:33N 37°28' E 025°20'0 0.0
2016-Jul-25 04:19N 37°28' E 025°20'0 0.0
2016-Jul-25 03:23N 37°28' E 025°20'0 0.0
2016-Jul-25 02:14N 37°28' E 025°20'0 0.0
2016-Jul-24 22:21N 37°28' E 025°20'0 0.0
2016-Jul-24 21:33N 37°28' E 025°20'0 0.0
2016-Jul-24 19:31N 37°28' E 025°20'0 0.0
2016-Jul-24 18:16N 37°28' E 025°20'0 0.0
2016-Jul-24 17:33N 37°28' E 025°20'0 0.0
2016-Jul-24 16:33N 37°28' E 025°20'0 0.0
2016-Jul-24 15:33N 37°28' E 025°20'0 0.0
2016-Jul-24 14:31N 37°28' E 025°20'0 0.0
2016-Jul-24 13:33N 37°28' E 025°20'3 3.3
2016-Jul-24 12:33N 37°28' E 025°15'9 8.8
2016-Jul-24 11:33N 37°27' E 025°04'6 0.6
2016-Jul-24 01:30N 37°29' E 024°57'9 9.4
2016-Jul-24 00:31N 37°31' E 024°46'40 6.3
2016-Jul-23 18:16N 37°38' E 023°57'7 9.8
2016-Jul-23 17:33N 37°42' E 023°49'10 9.9
2016-Jul-23 16:33N 37°50' E 023°42'6 6.3
2016-Jul-23 15:33N 37°56' E 023°39'0 0.0
2016-Jul-23 14:33N 37°56' E 023°39'0 0.0
2016-Jul-23 13:33N 37°56' E 023°39'0 0.0
2016-Jul-23 12:33N 37°56' E 023°39'0 0.0
2016-Jul-23 11:33N 37°56' E 023°39'0 0.0
2016-Jul-23 10:33N 37°56' E 023°39'0 0.0
2016-Jul-23 09:33N 37°56' E 023°39'0 0.0
2016-Jul-23 08:33N 37°56' E 023°39'0 0.0
2016-Jul-23 07:33N 37°56' E 023°39'0 0.0
2016-Jul-23 06:33N 37°56' E 023°39'0 0.0
2016-Jul-23 04:34N 37°56' E 023°39'0 0.0
2016-Jul-23 03:33N 37°56' E 023°39'0 0.0
2016-Jul-23 02:33N 37°56' E 023°39'0 0.0
2016-Jul-23 01:33N 37°56' E 023°39'0 0.0
2016-Jul-23 00:33N 37°56' E 023°39'0 0.0
2016-Jul-22 23:33N 37°56' E 023°39'0 0.0
2016-Jul-22 22:33N 37°56' E 023°39'0 0.0
2016-Jul-22 21:33N 37°56' E 023°39'0 0.0
2016-Jul-22 20:33N 37°56' E 023°39'0 0.0
2016-Jul-22 19:33N 37°56' E 023°39'0 0.0
2016-Jul-22 18:33N 37°56' E 023°39'0 0.0
2016-Jul-22 17:33N 37°56' E 023°39'0 0.0
2016-Jul-22 16:33N 37°56' E 023°39'5 4.8
2016-Jul-22 15:34N 37°53' E 023°35'1010.3
2016-Jul-22 14:33N 37°46' E 023°25'1 1.4
2016-Jul-22 13:33N 37°45' E 023°26'0 0.0
2016-Jul-22 12:33N 37°45' E 023°26'0 0.0
2016-Jul-22 11:33N 37°45' E 023°26'0 0.0
2016-Jul-22 10:33N 37°45' E 023°26'0 0.0
2016-Jul-22 09:33N 37°45' E 023°26'5 4.9
2016-Jul-22 08:33N 37°41' E 023°21'0 0.0
2016-Jul-22 07:33N 37°41' E 023°21'10 3.3
2016-Jul-22 04:33N 37°38' E 023°10'0 0.0
2016-Jul-22 03:33N 37°38' E 023°10'0 0.0
2016-Jul-22 02:33N 37°38' E 023°10'0 0.0
2016-Jul-22 01:33N 37°38' E 023°10'0 0.0
2016-Jul-22 00:33N 37°38' E 023°10'0 0.0
2016-Jul-21 23:33N 37°38' E 023°10'0 0.0
2016-Jul-21 22:33N 37°38' E 023°10'0 0.0
2016-Jul-21 21:33N 37°38' E 023°10'0 0.0
2016-Jul-21 20:33N 37°38' E 023°10'0 0.0
2016-Jul-21 19:33N 37°38' E 023°10'0 0.0
2016-Jul-21 18:33N 37°38' E 023°10'0 0.0
2016-Jul-21 17:33N 37°38' E 023°10'0 0.0
2016-Jul-21 16:33N 37°38' E 023°10'0 0.0
2016-Jul-21 15:33N 37°38' E 023°10'0 0.0
2016-Jul-21 14:33N 37°38' E 023°10'0 0.0
2016-Jul-21 13:33N 37°38' E 023°10'0 0.0
2016-Jul-21 12:33N 37°38' E 023°10'0 0.0
2016-Jul-21 11:33N 37°38' E 023°10'0 0.0
2016-Jul-21 10:33N 37°38' E 023°10'0 0.0
2016-Jul-21 09:33N 37°38' E 023°10'0 0.4
2016-Jul-21 08:33N 37°38' E 023°10'1 0.6
2016-Jul-21 07:33N 37°38' E 023°10'9 9.5
2016-Jul-21 06:33N 37°39' E 023°22'10 9.8
2016-Jul-21 05:33N 37°36' E 023°34'10 9.9
2016-Jul-21 04:33N 37°32' E 023°45'10 9.6
2016-Jul-21 03:32N 37°27' E 023°56'46 9.0
2016-Jul-20 22:26N 37°21' E 024°53'19 0.5
2016-Jul-19 07:15N 37°05' E 025°06'  
Track history (hours):
 
Tides and Currents Weather Stations Pressure Air Temp Water Temp Dewpoint Dewpoint Depression Visibility Wind Speed Wind Dir Waves Ship Positions

Galileo

Last reported at 2016-Jul-27 03:33 UTC. Time now 2016-Jul-28 16:30 UTC.
Position N 36°60' E 025°19'.

Length 40 m; draft 3 m.

Type: Passenger vessel. MMSI: 239299000.

Date/timePositionNaut miles runAvg speedWind from/ knotsBaromVisibWave heightAir tempDewpointWater temp
2016-Jul-27 03:33N 36°60' E 025°19'7 7.2
2016-Jul-27 02:34N 37°06' E 025°22'0 0.0
2016-Jul-27 01:33N 37°06' E 025°22'0 0.0
2016-Jul-27 00:33N 37°06' E 025°22'0 0.0
2016-Jul-26 23:33N 37°06' E 025°22'0 0.0
2016-Jul-26 22:33N 37°06' E 025°22'0 0.0
2016-Jul-26 21:33N 37°06' E 025°22'0 0.0
2016-Jul-26 20:33N 37°06' E 025°22'0 0.0
2016-Jul-26 19:33N 37°06' E 025°22'0 0.0
2016-Jul-26 18:33N 37°06' E 025°22'0 0.0
2016-Jul-26 17:33N 37°06' E 025°22'0 0.0
2016-Jul-26 16:33N 37°06' E 025°22'0 0.0
2016-Jul-26 15:33N 37°06' E 025°22'0 0.0
2016-Jul-26 14:33N 37°06' E 025°22'0 0.0
2016-Jul-26 13:34N 37°06' E 025°22'0 0.0
2016-Jul-26 12:33N 37°06' E 025°22'6 5.6
2016-Jul-26 11:33N 37°12' E 025°20'10 8.1
2016-Jul-26 10:17N 37°07' E 025°09'8 0.5
2016-Jul-25 16:33N 37°15' E 025°11'9 8.9
2016-Jul-25 15:33N 37°23' E 025°17'5 5.4
2016-Jul-25 14:33N 37°28' E 025°20'0 0.0
2016-Jul-25 13:31N 37°28' E 025°20'0 0.0
2016-Jul-25 12:30N 37°28' E 025°20'0 0.0
2016-Jul-25 11:22N 37°28' E 025°20'0 0.0
2016-Jul-25 08:24N 37°28' E 025°20'0 0.0
2016-Jul-25 07:33N 37°28' E 025°20'0 0.0
2016-Jul-25 06:30N 37°28' E 025°20'0 0.0
2016-Jul-25 05:33N 37°28' E 025°20'0 0.0
2016-Jul-25 04:19N 37°28' E 025°20'0 0.0
2016-Jul-25 03:23N 37°28' E 025°20'0 0.0
2016-Jul-25 02:14N 37°28' E 025°20'0 0.0
2016-Jul-24 22:21N 37°28' E 025°20'0 0.0
2016-Jul-24 21:33N 37°28' E 025°20'0 0.0
2016-Jul-24 19:31N 37°28' E 025°20'0 0.0
2016-Jul-24 18:16N 37°28' E 025°20'0 0.0
2016-Jul-24 17:33N 37°28' E 025°20'0 0.0
2016-Jul-24 16:33N 37°28' E 025°20'0 0.0
2016-Jul-24 15:33N 37°28' E 025°20'0 0.0
2016-Jul-24 14:31N 37°28' E 025°20'0 0.0
2016-Jul-24 13:33N 37°28' E 025°20'3 3.3
2016-Jul-24 12:33N 37°28' E 025°15'9 8.8
2016-Jul-24 11:33N 37°27' E 025°04'6 0.6
2016-Jul-24 01:30N 37°29' E 024°57'9 9.4
2016-Jul-24 00:31N 37°31' E 024°46'40 6.3
2016-Jul-23 18:16N 37°38' E 023°57'7 9.8
2016-Jul-23 17:33N 37°42' E 023°49'10 9.9
2016-Jul-23 16:33N 37°50' E 023°42'6 6.3
2016-Jul-23 15:33N 37°56' E 023°39'0 0.0
2016-Jul-23 14:33N 37°56' E 023°39'0 0.0
2016-Jul-23 13:33N 37°56' E 023°39'0 0.0
2016-Jul-23 12:33N 37°56' E 023°39'0 0.0
2016-Jul-23 11:33N 37°56' E 023°39'0 0.0
2016-Jul-23 10:33N 37°56' E 023°39'0 0.0
2016-Jul-23 09:33N 37°56' E 023°39'0 0.0
2016-Jul-23 08:33N 37°56' E 023°39'0 0.0
2016-Jul-23 07:33N 37°56' E 023°39'0 0.0
2016-Jul-23 06:33N 37°56' E 023°39'0 0.0
2016-Jul-23 04:34N 37°56' E 023°39'0 0.0
2016-Jul-23 03:33N 37°56' E 023°39'0 0.0
2016-Jul-23 02:33N 37°56' E 023°39'0 0.0
2016-Jul-23 01:33N 37°56' E 023°39'0 0.0
2016-Jul-23 00:33N 37°56' E 023°39'0 0.0
2016-Jul-22 23:33N 37°56' E 023°39'0 0.0
2016-Jul-22 22:33N 37°56' E 023°39'0 0.0
2016-Jul-22 21:33N 37°56' E 023°39'0 0.0
2016-Jul-22 20:33N 37°56' E 023°39'0 0.0
2016-Jul-22 19:33N 37°56' E 023°39'0 0.0
2016-Jul-22 18:33N 37°56' E 023°39'0 0.0
2016-Jul-22 17:33N 37°56' E 023°39'0 0.0
2016-Jul-22 16:33N 37°56' E 023°39'5 4.8
2016-Jul-22 15:34N 37°53' E 023°35'1010.3
2016-Jul-22 14:33N 37°46' E 023°25'1 1.4
2016-Jul-22 13:33N 37°45' E 023°26'0 0.0
2016-Jul-22 12:33N 37°45' E 023°26'0 0.0
2016-Jul-22 11:33N 37°45' E 023°26'0 0.0
2016-Jul-22 10:33N 37°45' E 023°26'0 0.0
2016-Jul-22 09:33N 37°45' E 023°26'5 4.9
2016-Jul-22 08:33N 37°41' E 023°21'0 0.0
2016-Jul-22 07:33N 37°41' E 023°21'10 3.3
2016-Jul-22 04:33N 37°38' E 023°10'0 0.0
2016-Jul-22 03:33N 37°38' E 023°10'0 0.0
2016-Jul-22 02:33N 37°38' E 023°10'0 0.0
2016-Jul-22 01:33N 37°38' E 023°10'0 0.0
2016-Jul-22 00:33N 37°38' E 023°10'0 0.0
2016-Jul-21 23:33N 37°38' E 023°10'0 0.0
2016-Jul-21 22:33N 37°38' E 023°10'0 0.0
2016-Jul-21 21:33N 37°38' E 023°10'0 0.0
2016-Jul-21 20:33N 37°38' E 023°10'0 0.0
2016-Jul-21 19:33N 37°38' E 023°10'0 0.0
2016-Jul-21 18:33N 37°38' E 023°10'0 0.0
2016-Jul-21 17:33N 37°38' E 023°10'0 0.0
2016-Jul-21 16:33N 37°38' E 023°10'0 0.0
2016-Jul-21 15:33N 37°38' E 023°10'0 0.0
2016-Jul-21 14:33N 37°38' E 023°10'0 0.0
2016-Jul-21 13:33N 37°38' E 023°10'0 0.0
2016-Jul-21 12:33N 37°38' E 023°10'0 0.0
2016-Jul-21 11:33N 37°38' E 023°10'0 0.0
2016-Jul-21 10:33N 37°38' E 023°10'0 0.0
2016-Jul-21 09:33N 37°38' E 023°10'0 0.4
2016-Jul-21 08:33N 37°38' E 023°10'1 0.6
2016-Jul-21 07:33N 37°38' E 023°10'9 9.5
2016-Jul-21 06:33N 37°39' E 023°22'10 9.8
2016-Jul-21 05:33N 37°36' E 023°34'10 9.9
2016-Jul-21 04:33N 37°32' E 023°45'10 9.6
2016-Jul-21 03:32N 37°27' E 023°56'46 9.0
2016-Jul-20 22:26N 37°21' E 024°53'19 0.5
2016-Jul-19 07:15N 37°05' E 025°06'  

Dump ship's entire track history